CheckWX is a tool to help pilots better visualize weather data.  It is not intended as a substitute for an official pre-flight weather briefing.

00:48:21 UTC

KOWB METAR
Owensboro-Daviess County Regional Airport
Owensboro, Kentucky, USA
Current

52 mins ago

KOWB 222356Z 23008KT 10SM CLR 11/03 A2996 RMK AO2 SLP148 T01110033 10189 20111 53018
Observed
Oct-22 @ 23:56 UTC
Wind
  • 230° at 8 KTS
Visibility
10 SM
Flight Rules
VFR
Cloud Levels
  • Clear skies
Temperature
11°C / 52°F
Dewpoint
C / 37°F
Humidity
58%
Altimeter
29.96" Hg
Pressure
1014.52 hPa
Previous

2 hours ago

KOWB 222256Z 24012KT 10SM CLR 14/03 A2994 RMK AO2 SLP140 T01440033
Observed
Oct-22 @ 22:56 UTC
Wind
  • 240° at 12 KTS
Visibility
10 SM
Flight Rules
VFR
Cloud Levels
  • Clear skies
Temperature
14°C / 57°F
Dewpoint
C / 37°F
Humidity
48%
Altimeter
29.94" Hg
Pressure
1013.92 hPa
Previous

3 hours ago

KOWB 222156Z 25014KT 10SM CLR 17/03 A2991 RMK AO2 SLP128 T01670028
Observed
Oct-22 @ 21:56 UTC
Wind
  • 250° at 14 KTS
Visibility
10 SM
Flight Rules
VFR
Cloud Levels
  • Clear skies
Temperature
17°C / 63°F
Dewpoint
C / 37°F
Humidity
39%
Altimeter
29.91" Hg
Pressure
1012.92 hPa